sensor_id;sensor_type;location;lat;lon;timestamp;temperature;humidity
16511;DHT22;8368;48.772;8.754;2023-05-10T00:00:42;11.50;99.90
16511;DHT22;8368;48.772;8.754;2023-05-10T00:03:08;11.50;99.90
16511;DHT22;8368;48.772;8.754;2023-05-10T00:05:34;11.40;99.90
16511;DHT22;8368;48.772;8.754;2023-05-10T00:07:59;11.40;99.90
16511;DHT22;8368;48.772;8.754;2023-05-10T00:10:25;11.40;99.90
16511;DHT22;8368;48.772;8.754;2023-05-10T00:12:50;11.40;99.90
16511;DHT22;8368;48.772;8.754;2023-05-10T00:15:16;11.40;99.90
16511;DHT22;8368;48.772;8.754;2023-05-10T00:17:41;11.40;99.90
16511;DHT22;8368;48.772;8.754;2023-05-10T00:20:07;11.40;99.90
16511;DHT22;8368;48.772;8.754;2023-05-10T00:22:33;11.40;99.90
16511;DHT22;8368;48.772;8.754;2023-05-10T00:24:59;11.40;99.90
16511;DHT22;8368;48.772;8.754;2023-05-10T00:27:24;11.40;99.90
16511;DHT22;8368;48.772;8.754;2023-05-10T00:29:50;11.40;99.90
16511;DHT22;8368;48.772;8.754;2023-05-10T00:32:15;11.30;99.90
16511;DHT22;8368;48.772;8.754;2023-05-10T00:34:41;11.30;99.90
16511;DHT22;8368;48.772;8.754;2023-05-10T00:37:07;11.30;99.90
16511;DHT22;8368;48.772;8.754;2023-05-10T00:39:32;11.30;99.90
16511;DHT22;8368;48.772;8.754;2023-05-10T00:41:58;11.30;99.90
16511;DHT22;8368;48.772;8.754;2023-05-10T00:44:23;11.30;99.90
16511;DHT22;8368;48.772;8.754;2023-05-10T00:46:49;11.30;99.90
16511;DHT22;8368;48.772;8.754;2023-05-10T00:49:15;11.30;99.90
16511;DHT22;8368;48.772;8.754;2023-05-10T00:51:41;11.30;99.90
16511;DHT22;8368;48.772;8.754;2023-05-10T00:54:09;11.30;99.90
16511;DHT22;8368;48.772;8.754;2023-05-10T00:56:36;11.30;99.90
16511;DHT22;8368;48.772;8.754;2023-05-10T00:59:02;11.30;99.90
16511;DHT22;8368;48.772;8.754;2023-05-10T01:01:28;11.30;99.90
16511;DHT22;8368;48.772;8.754;2023-05-10T01:03:55;11.30;99.90
16511;DHT22;8368;48.772;8.754;2023-05-10T01:06:21;11.30;99.90
16511;DHT22;8368;48.772;8.754;2023-05-10T01:08:46;11.30;99.90
16511;DHT22;8368;48.772;8.754;2023-05-10T01:11:13;11.30;99.90
16511;DHT22;8368;48.772;8.754;2023-05-10T01:13:39;11.30;99.90
16511;DHT22;8368;48.772;8.754;2023-05-10T01:16:06;11.30;99.90
16511;DHT22;8368;48.772;8.754;2023-05-10T01:18:38;11.30;99.90
16511;DHT22;8368;48.772;8.754;2023-05-10T01:21:38;11.30;99.90
16511;DHT22;8368;48.772;8.754;2023-05-10T01:27:12;11.30;99.90
16511;DHT22;8368;48.772;8.754;2023-05-10T01:30:11;11.30;99.90
16511;DHT22;8368;48.772;8.754;2023-05-10T01:38:29;11.20;99.90
16511;DHT22;8368;48.772;8.754;2023-05-10T01:41:14;11.20;99.90
16511;DHT22;8368;48.772;8.754;2023-05-10T01:43:57;11.20;99.90
16511;DHT22;8368;48.772;8.754;2023-05-10T01:46:35;11.20;99.90
16511;DHT22;8368;48.772;8.754;2023-05-10T01:49:09;11.20;99.90
16511;DHT22;8368;48.772;8.754;2023-05-10T01:51:44;11.20;99.90
16511;DHT22;8368;48.772;8.754;2023-05-10T01:54:13;11.20;99.90
16511;DHT22;8368;48.772;8.754;2023-05-10T01:56:40;11.10;99.90
16511;DHT22;8368;48.772;8.754;2023-05-10T01:59:12;11.10;99.90
16511;DHT22;8368;48.772;8.754;2023-05-10T02:01:40;11.10;99.90
16511;DHT22;8368;48.772;8.754;2023-05-10T02:04:07;11.10;99.90
16511;DHT22;8368;48.772;8.754;2023-05-10T02:06:34;11.10;99.90
16511;DHT22;8368;48.772;8.754;2023-05-10T02:09:02;11.00;99.90
16511;DHT22;8368;48.772;8.754;2023-05-10T02:11:29;11.00;99.90
16511;DHT22;8368;48.772;8.754;2023-05-10T02:13:55;11.00;99.90
16511;DHT22;8368;48.772;8.754;2023-05-10T02:16:25;11.00;99.90
16511;DHT22;8368;48.772;8.754;2023-05-10T02:18:52;11.00;99.90
16511;DHT22;8368;48.772;8.754;2023-05-10T02:21:19;11.00;99.90
16511;DHT22;8368;48.772;8.754;2023-05-10T02:23:46;11.00;99.90
16511;DHT22;8368;48.772;8.754;2023-05-10T02:26:14;11.00;99.90
16511;DHT22;8368;48.772;8.754;2023-05-10T02:28:40;11.00;99.90
16511;DHT22;8368;48.772;8.754;2023-05-10T02:31:07;11.10;99.90
16511;DHT22;8368;48.772;8.754;2023-05-10T02:33:38;11.10;99.90
16511;DHT22;8368;48.772;8.754;2023-05-10T02:36:04;11.10;99.90
16511;DHT22;8368;48.772;8.754;2023-05-10T02:38:31;11.20;99.90
16511;DHT22;8368;48.772;8.754;2023-05-10T02:40:58;11.20;99.90
16511;DHT22;8368;48.772;8.754;2023-05-10T02:43:24;11.20;99.90
16511;DHT22;8368;48.772;8.754;2023-05-10T02:45:50;11.20;99.90
16511;DHT22;8368;48.772;8.754;2023-05-10T02:48:16;11.20;99.90
16511;DHT22;8368;48.772;8.754;2023-05-10T02:50:44;11.20;99.90
16511;DHT22;8368;48.772;8.754;2023-05-10T02:53:15;11.20;99.90
16511;DHT22;8368;48.772;8.754;2023-05-10T02:55:45;11.30;99.90
16511;DHT22;8368;48.772;8.754;2023-05-10T02:58:12;11.30;99.90
16511;DHT22;8368;48.772;8.754;2023-05-10T03:00:38;11.20;99.90
16511;DHT22;8368;48.772;8.754;2023-05-10T03:03:03;11.30;99.90
16511;DHT22;8368;48.772;8.754;2023-05-10T03:05:29;11.30;99.90
16511;DHT22;8368;48.772;8.754;2023-05-10T03:07:55;11.30;99.90
16511;DHT22;8368;48.772;8.754;2023-05-10T03:10:27;11.30;99.90
16511;DHT22;8368;48.772;8.754;2023-05-10T03:15:47;11.30;99.90
16511;DHT22;8368;48.772;8.754;2023-05-10T03:18:21;11.30;99.90
16511;DHT22;8368;48.772;8.754;2023-05-10T03:20:49;11.30;99.90
16511;DHT22;8368;48.772;8.754;2023-05-10T03:23:46;11.30;99.90
16511;DHT22;8368;48.772;8.754;2023-05-10T03:26:18;11.30;99.90
16511;DHT22;8368;48.772;8.754;2023-05-10T03:28:45;11.30;99.90
16511;DHT22;8368;48.772;8.754;2023-05-10T03:31:12;11.30;99.90
16511;DHT22;8368;48.772;8.754;2023-05-10T03:33:49;11.30;99.90
16511;DHT22;8368;48.772;8.754;2023-05-10T03:36:15;11.30;99.90
16511;DHT22;8368;48.772;8.754;2023-05-10T03:38:41;11.30;99.90
16511;DHT22;8368;48.772;8.754;2023-05-10T03:41:07;11.30;99.90
16511;DHT22;8368;48.772;8.754;2023-05-10T03:43:32;11.30;99.90
16511;DHT22;8368;48.772;8.754;2023-05-10T03:45:58;11.30;99.90
16511;DHT22;8368;48.772;8.754;2023-05-10T03:48:23;11.30;99.90
16511;DHT22;8368;48.772;8.754;2023-05-10T03:50:49;11.30;99.90
16511;DHT22;8368;48.772;8.754;2023-05-10T03:53:15;11.30;99.90
16511;DHT22;8368;48.772;8.754;2023-05-10T03:55:40;11.30;99.90
16511;DHT22;8368;48.772;8.754;2023-05-10T03:58:06;11.30;99.90
16511;DHT22;8368;48.772;8.754;2023-05-10T04:00:31;11.30;99.90
16511;DHT22;8368;48.772;8.754;2023-05-10T04:02:58;11.30;99.90
16511;DHT22;8368;48.772;8.754;2023-05-10T04:05:23;11.30;99.90
16511;DHT22;8368;48.772;8.754;2023-05-10T04:07:49;11.20;99.90
16511;DHT22;8368;48.772;8.754;2023-05-10T04:10:15;11.30;99.90
16511;DHT22;8368;48.772;8.754;2023-05-10T04:12:41;11.30;99.90
16511;DHT22;8368;48.772;8.754;2023-05-10T04:15:07;11.20;99.90
16511;DHT22;8368;48.772;8.754;2023-05-10T04:17:33;11.20;99.90
16511;DHT22;8368;48.772;8.754;2023-05-10T04:19:59;11.20;99.90
16511;DHT22;8368;48.772;8.754;2023-05-10T04:22:24;11.20;99.90
16511;DHT22;8368;48.772;8.754;2023-05-10T04:24:50;11.20;99.90
16511;DHT22;8368;48.772;8.754;2023-05-10T04:27:15;11.20;99.90
16511;DHT22;8368;48.772;8.754;2023-05-10T04:29:41;11.20;99.90
16511;DHT22;8368;48.772;8.754;2023-05-10T04:32:06;11.20;99.90
16511;DHT22;8368;48.772;8.754;2023-05-10T04:34:32;11.20;99.90
16511;DHT22;8368;48.772;8.754;2023-05-10T04:36:59;11.20;99.90
16511;DHT22;8368;48.772;8.754;2023-05-10T04:39:25;11.20;99.90
16511;DHT22;8368;48.772;8.754;2023-05-10T04:41:50;11.20;99.90
16511;DHT22;8368;48.772;8.754;2023-05-10T04:44:15;11.20;99.90
16511;DHT22;8368;48.772;8.754;2023-05-10T04:46:41;11.20;99.90
16511;DHT22;8368;48.772;8.754;2023-05-10T04:49:06;11.20;99.90
16511;DHT22;8368;48.772;8.754;2023-05-10T04:51:32;11.20;99.90
16511;DHT22;8368;48.772;8.754;2023-05-10T04:53:58;11.30;99.90
16511;DHT22;8368;48.772;8.754;2023-05-10T04:56:23;11.30;99.90
16511;DHT22;8368;48.772;8.754;2023-05-10T04:58:49;11.30;99.90
16511;DHT22;8368;48.772;8.754;2023-05-10T05:01:15;11.30;99.90
16511;DHT22;8368;48.772;8.754;2023-05-10T05:03:40;11.30;99.90
16511;DHT22;8368;48.772;8.754;2023-05-10T05:06:06;11.30;99.90
16511;DHT22;8368;48.772;8.754;2023-05-10T05:08:32;11.30;99.90
16511;DHT22;8368;48.772;8.754;2023-05-10T05:10:57;11.40;99.90
16511;DHT22;8368;48.772;8.754;2023-05-10T05:13:23;11.40;99.90
16511;DHT22;8368;48.772;8.754;2023-05-10T05:15:48;11.40;99.90
16511;DHT22;8368;48.772;8.754;2023-05-10T05:18:14;11.40;99.90
16511;DHT22;8368;48.772;8.754;2023-05-10T05:20:39;11.50;99.90
16511;DHT22;8368;48.772;8.754;2023-05-10T05:23:05;11.50;99.90
16511;DHT22;8368;48.772;8.754;2023-05-10T05:25:30;11.50;99.90
16511;DHT22;8368;48.772;8.754;2023-05-10T05:27:56;11.50;99.90
16511;DHT22;8368;48.772;8.754;2023-05-10T05:30:22;11.60;99.90
16511;DHT22;8368;48.772;8.754;2023-05-10T05:32:47;11.60;99.90
16511;DHT22;8368;48.772;8.754;2023-05-10T05:35:13;11.60;99.90
16511;DHT22;8368;48.772;8.754;2023-05-10T05:37:38;11.60;99.90
16511;DHT22;8368;48.772;8.754;2023-05-10T05:40:05;11.50;99.90
16511;DHT22;8368;48.772;8.754;2023-05-10T05:42:31;11.50;99.90
16511;DHT22;8368;48.772;8.754;2023-05-10T05:44:56;11.50;99.90
16511;DHT22;8368;48.772;8.754;2023-05-10T05:47:22;11.50;99.90
16511;DHT22;8368;48.772;8.754;2023-05-10T05:49:48;11.50;99.90
16511;DHT22;8368;48.772;8.754;2023-05-10T05:52:13;11.50;99.90
16511;DHT22;8368;48.772;8.754;2023-05-10T05:54:39;11.40;99.90
16511;DHT22;8368;48.772;8.754;2023-05-10T05:57:05;11.40;99.90
16511;DHT22;8368;48.772;8.754;2023-05-10T05:59:30;11.40;99.90
16511;DHT22;8368;48.772;8.754;2023-05-10T06:01:56;11.40;99.90
16511;DHT22;8368;48.772;8.754;2023-05-10T06:04:21;11.40;99.90
16511;DHT22;8368;48.772;8.754;2023-05-10T06:06:47;11.40;99.90
16511;DHT22;8368;48.772;8.754;2023-05-10T06:09:12;11.40;99.90
16511;DHT22;8368;48.772;8.754;2023-05-10T06:11:38;11.40;99.90
16511;DHT22;8368;48.772;8.754;2023-05-10T06:14:04;11.40;99.90
16511;DHT22;8368;48.772;8.754;2023-05-10T06:16:30;11.40;99.90
16511;DHT22;8368;48.772;8.754;2023-05-10T06:18:56;11.60;99.90
16511;DHT22;8368;48.772;8.754;2023-05-10T06:21:22;11.60;99.90
16511;DHT22;8368;48.772;8.754;2023-05-10T06:23:47;11.80;99.90
16511;DHT22;8368;48.772;8.754;2023-05-10T06:26:13;11.80;99.90
16511;DHT22;8368;48.772;8.754;2023-05-10T06:28:39;11.80;99.90
16511;DHT22;8368;48.772;8.754;2023-05-10T06:31:05;11.90;99.90
16511;DHT22;8368;48.772;8.754;2023-05-10T06:33:32;12.00;99.90
16511;DHT22;8368;48.772;8.754;2023-05-10T06:35:58;12.00;99.90
16511;DHT22;8368;48.772;8.754;2023-05-10T06:38:23;12.10;99.90
16511;DHT22;8368;48.772;8.754;2023-05-10T06:40:49;12.10;99.90
16511;DHT22;8368;48.772;8.754;2023-05-10T06:43:14;12.20;99.90
16511;DHT22;8368;48.772;8.754;2023-05-10T06:45:40;12.20;99.90
16511;DHT22;8368;48.772;8.754;2023-05-10T06:48:06;12.30;99.90
16511;DHT22;8368;48.772;8.754;2023-05-10T06:50:32;12.40;99.90
16511;DHT22;8368;48.772;8.754;2023-05-10T06:52:58;12.50;99.90
16511;DHT22;8368;48.772;8.754;2023-05-10T06:55:24;12.60;99.90
16511;DHT22;8368;48.772;8.754;2023-05-10T06:57:50;12.60;99.90
16511;DHT22;8368;48.772;8.754;2023-05-10T07:00:16;12.60;99.90
16511;DHT22;8368;48.772;8.754;2023-05-10T07:02:42;12.70;99.90
16511;DHT22;8368;48.772;8.754;2023-05-10T07:05:08;12.70;99.90
16511;DHT22;8368;48.772;8.754;2023-05-10T07:07:33;12.70;99.90
16511;DHT22;8368;48.772;8.754;2023-05-10T07:09:59;12.70;99.90
16511;DHT22;8368;48.772;8.754;2023-05-10T07:12:24;12.70;99.90
16511;DHT22;8368;48.772;8.754;2023-05-10T07:14:50;12.60;99.90
16511;DHT22;8368;48.772;8.754;2023-05-10T07:17:16;12.60;99.90
16511;DHT22;8368;48.772;8.754;2023-05-10T07:19:41;12.60;99.90
16511;DHT22;8368;48.772;8.754;2023-05-10T07:22:07;12.60;99.90
16511;DHT22;8368;48.772;8.754;2023-05-10T07:24:33;12.60;99.90
16511;DHT22;8368;48.772;8.754;2023-05-10T07:26:59;12.60;99.90
16511;DHT22;8368;48.772;8.754;2023-05-10T07:29:24;12.70;99.90
16511;DHT22;8368;48.772;8.754;2023-05-10T07:31:50;12.70;99.90
16511;DHT22;8368;48.772;8.754;2023-05-10T07:34:15;12.70;99.90
16511;DHT22;8368;48.772;8.754;2023-05-10T07:36:41;12.80;99.90
16511;DHT22;8368;48.772;8.754;2023-05-10T07:39:07;12.80;99.90
16511;DHT22;8368;48.772;8.754;2023-05-10T07:41:32;12.90;99.90
16511;DHT22;8368;48.772;8.754;2023-05-10T07:43:58;13.00;99.90
16511;DHT22;8368;48.772;8.754;2023-05-10T07:46:23;13.00;99.90
16511;DHT22;8368;48.772;8.754;2023-05-10T07:48:49;13.10;99.90
16511;DHT22;8368;48.772;8.754;2023-05-10T07:51:14;13.20;99.90
16511;DHT22;8368;48.772;8.754;2023-05-10T07:53:40;13.30;99.90
16511;DHT22;8368;48.772;8.754;2023-05-10T07:56:28;13.40;99.90
16511;DHT22;8368;48.772;8.754;2023-05-10T07:58:58;13.30;99.90
16511;DHT22;8368;48.772;8.754;2023-05-10T08:01:26;13.40;99.90
16511;DHT22;8368;48.772;8.754;2023-05-10T08:03:52;13.60;99.90
16511;DHT22;8368;48.772;8.754;2023-05-10T08:06:19;13.60;99.90
16511;DHT22;8368;48.772;8.754;2023-05-10T08:08:45;13.70;99.90
16511;DHT22;8368;48.772;8.754;2023-05-10T08:11:17;13.70;99.90
16511;DHT22;8368;48.772;8.754;2023-05-10T08:13:44;13.70;99.90
16511;DHT22;8368;48.772;8.754;2023-05-10T08:16:10;13.80;99.90
16511;DHT22;8368;48.772;8.754;2023-05-10T08:18:36;13.60;99.90
16511;DHT22;8368;48.772;8.754;2023-05-10T08:21:02;13.60;99.90
16511;DHT22;8368;48.772;8.754;2023-05-10T08:23:27;13.60;99.90
16511;DHT22;8368;48.772;8.754;2023-05-10T08:25:53;13.50;99.90
16511;DHT22;8368;48.772;8.754;2023-05-10T08:28:18;13.40;99.90
16511;DHT22;8368;48.772;8.754;2023-05-10T08:30:44;13.30;99.90
16511;DHT22;8368;48.772;8.754;2023-05-10T08:33:09;13.30;99.90
16511;DHT22;8368;48.772;8.754;2023-05-10T08:35:35;13.40;99.90
16511;DHT22;8368;48.772;8.754;2023-05-10T08:38:01;13.50;99.90
16511;DHT22;8368;48.772;8.754;2023-05-10T08:40:26;13.70;99.90
16511;DHT22;8368;48.772;8.754;2023-05-10T08:43:18;13.70;99.90
16511;DHT22;8368;48.772;8.754;2023-05-10T08:45:44;13.90;99.90
16511;DHT22;8368;48.772;8.754;2023-05-10T08:48:14;13.90;99.90
16511;DHT22;8368;48.772;8.754;2023-05-10T08:50:41;13.90;99.90
16511;DHT22;8368;48.772;8.754;2023-05-10T08:53:12;14.00;99.90
16511;DHT22;8368;48.772;8.754;2023-05-10T08:55:38;14.00;99.90
16511;DHT22;8368;48.772;8.754;2023-05-10T08:58:06;14.00;99.90
16511;DHT22;8368;48.772;8.754;2023-05-10T09:00:32;14.20;99.90
16511;DHT22;8368;48.772;8.754;2023-05-10T09:02:59;14.30;99.90
16511;DHT22;8368;48.772;8.754;2023-05-10T09:05:24;14.30;99.90
16511;DHT22;8368;48.772;8.754;2023-05-10T09:07:50;14.40;99.90
16511;DHT22;8368;48.772;8.754;2023-05-10T09:10:16;14.30;99.90
16511;DHT22;8368;48.772;8.754;2023-05-10T09:12:43;14.30;99.90
16511;DHT22;8368;48.772;8.754;2023-05-10T09:15:09;14.40;99.90
16511;DHT22;8368;48.772;8.754;2023-05-10T09:17:36;14.40;99.90
16511;DHT22;8368;48.772;8.754;2023-05-10T09:20:03;14.50;99.90
16511;DHT22;8368;48.772;8.754;2023-05-10T09:22:33;14.50;99.90
16511;DHT22;8368;48.772;8.754;2023-05-10T09:25:10;14.50;99.90
16511;DHT22;8368;48.772;8.754;2023-05-10T09:27:40;14.50;99.90
16511;DHT22;8368;48.772;8.754;2023-05-10T09:30:07;14.60;99.90
16511;DHT22;8368;48.772;8.754;2023-05-10T09:32:41;14.70;99.90
16511;DHT22;8368;48.772;8.754;2023-05-10T09:35:20;14.90;99.90
16511;DHT22;8368;48.772;8.754;2023-05-10T09:37:48;14.90;99.90
16511;DHT22;8368;48.772;8.754;2023-05-10T09:42:42;15.10;99.90
16511;DHT22;8368;48.772;8.754;2023-05-10T09:45:15;15.10;99.90
16511;DHT22;8368;48.772;8.754;2023-05-10T09:47:41;15.00;99.90
16511;DHT22;8368;48.772;8.754;2023-05-10T09:50:06;14.90;99.90
16511;DHT22;8368;48.772;8.754;2023-05-10T09:52:52;15.20;99.90
16511;DHT22;8368;48.772;8.754;2023-05-10T09:55:23;15.40;99.90
16511;DHT22;8368;48.772;8.754;2023-05-10T09:57:58;15.40;99.90
16511;DHT22;8368;48.772;8.754;2023-05-10T10:00:23;15.20;99.90
16511;DHT22;8368;48.772;8.754;2023-05-10T10:02:57;14.70;99.90
16511;DHT22;8368;48.772;8.754;2023-05-10T10:05:30;14.00;99.90
16511;DHT22;8368;48.772;8.754;2023-05-10T10:07:57;13.60;99.90
16511;DHT22;8368;48.772;8.754;2023-05-10T10:10:24;13.10;99.90
16511;DHT22;8368;48.772;8.754;2023-05-10T10:12:50;12.80;99.90
16511;DHT22;8368;48.772;8.754;2023-05-10T10:15:16;12.60;99.90
16511;DHT22;8368;48.772;8.754;2023-05-10T10:17:43;12.50;99.90
16511;DHT22;8368;48.772;8.754;2023-05-10T10:20:09;12.30;99.90
16511;DHT22;8368;48.772;8.754;2023-05-10T10:22:37;12.30;99.90
16511;DHT22;8368;48.772;8.754;2023-05-10T10:25:03;12.20;99.90
16511;DHT22;8368;48.772;8.754;2023-05-10T10:33:18;12.40;99.90
16511;DHT22;8368;48.772;8.754;2023-05-10T10:35:49;12.50;99.90
16511;DHT22;8368;48.772;8.754;2023-05-10T10:38:16;12.60;99.90
16511;DHT22;8368;48.772;8.754;2023-05-10T10:40:42;12.70;99.90
16511;DHT22;8368;48.772;8.754;2023-05-10T10:43:27;12.80;99.90
16511;DHT22;8368;48.772;8.754;2023-05-10T10:46:13;12.80;99.90
16511;DHT22;8368;48.772;8.754;2023-05-10T10:49:08;12.80;99.90
16511;DHT22;8368;48.772;8.754;2023-05-10T10:51:38;12.70;99.90
16511;DHT22;8368;48.772;8.754;2023-05-10T10:54:10;12.70;99.90
16511;DHT22;8368;48.772;8.754;2023-05-10T10:56:36;12.80;99.90
16511;DHT22;8368;48.772;8.754;2023-05-10T10:59:02;12.70;99.90
16511;DHT22;8368;48.772;8.754;2023-05-10T11:01:33;12.70;99.90
16511;DHT22;8368;48.772;8.754;2023-05-10T11:06:34;12.80;99.90
16511;DHT22;8368;48.772;8.754;2023-05-10T11:09:07;12.90;99.90
16511;DHT22;8368;48.772;8.754;2023-05-10T11:11:34;12.90;99.90
16511;DHT22;8368;48.772;8.754;2023-05-10T11:14:04;13.00;99.90
16511;DHT22;8368;48.772;8.754;2023-05-10T11:16:41;13.10;99.90
16511;DHT22;8368;48.772;8.754;2023-05-10T11:19:11;13.40;99.90
16511;DHT22;8368;48.772;8.754;2023-05-10T11:24:30;13.60;99.90
16511;DHT22;8368;48.772;8.754;2023-05-10T11:26:56;13.40;99.90
16511;DHT22;8368;48.772;8.754;2023-05-10T11:29:22;13.20;99.90
16511;DHT22;8368;48.772;8.754;2023-05-10T11:31:49;13.20;99.90
16511;DHT22;8368;48.772;8.754;2023-05-10T11:34:25;13.10;99.90
16511;DHT22;8368;48.772;8.754;2023-05-10T11:36:52;13.20;99.90
16511;DHT22;8368;48.772;8.754;2023-05-10T11:39:19;13.40;99.90
16511;DHT22;8368;48.772;8.754;2023-05-10T11:41:48;13.50;99.90
16511;DHT22;8368;48.772;8.754;2023-05-10T11:44:14;13.80;99.90
16511;DHT22;8368;48.772;8.754;2023-05-10T11:46:39;14.00;99.90
16511;DHT22;8368;48.772;8.754;2023-05-10T11:49:07;14.10;99.90
16511;DHT22;8368;48.772;8.754;2023-05-10T11:51:36;14.30;99.90
16511;DHT22;8368;48.772;8.754;2023-05-10T11:54:06;14.30;99.90
16511;DHT22;8368;48.772;8.754;2023-05-10T11:56:33;14.40;99.90
16511;DHT22;8368;48.772;8.754;2023-05-10T11:59:00;14.40;99.90
16511;DHT22;8368;48.772;8.754;2023-05-10T12:01:27;14.70;99.90
16511;DHT22;8368;48.772;8.754;2023-05-10T12:03:54;14.70;99.90
16511;DHT22;8368;48.772;8.754;2023-05-10T12:06:21;14.80;99.90
16511;DHT22;8368;48.772;8.754;2023-05-10T12:08:47;14.90;99.90
16511;DHT22;8368;48.772;8.754;2023-05-10T12:11:14;15.10;99.90
16511;DHT22;8368;48.772;8.754;2023-05-10T12:13:43;15.10;99.90
16511;DHT22;8368;48.772;8.754;2023-05-10T12:16:14;15.30;99.90
16511;DHT22;8368;48.772;8.754;2023-05-10T12:18:41;15.30;99.90
16511;DHT22;8368;48.772;8.754;2023-05-10T12:21:10;15.10;99.90
16511;DHT22;8368;48.772;8.754;2023-05-10T12:23:36;14.90;99.90
16511;DHT22;8368;48.772;8.754;2023-05-10T12:26:02;14.90;99.90
16511;DHT22;8368;48.772;8.754;2023-05-10T12:28:30;14.90;99.90
16511;DHT22;8368;48.772;8.754;2023-05-10T12:30:58;14.70;99.90
16511;DHT22;8368;48.772;8.754;2023-05-10T12:33:24;14.60;99.90
16511;DHT22;8368;48.772;8.754;2023-05-10T12:35:51;14.50;99.90
16511;DHT22;8368;48.772;8.754;2023-05-10T12:38:33;14.30;99.90
16511;DHT22;8368;48.772;8.754;2023-05-10T12:41:01;14.40;99.90
16511;DHT22;8368;48.772;8.754;2023-05-10T12:43:27;14.50;99.90
16511;DHT22;8368;48.772;8.754;2023-05-10T12:45:52;14.70;99.90
16511;DHT22;8368;48.772;8.754;2023-05-10T12:48:18;14.80;99.90
16511;DHT22;8368;48.772;8.754;2023-05-10T12:50:44;14.90;99.90
16511;DHT22;8368;48.772;8.754;2023-05-10T12:53:09;15.00;99.90
16511;DHT22;8368;48.772;8.754;2023-05-10T12:55:35;15.00;99.90
16511;DHT22;8368;48.772;8.754;2023-05-10T12:58:00;15.10;99.90
16511;DHT22;8368;48.772;8.754;2023-05-10T13:00:26;15.00;99.90
16511;DHT22;8368;48.772;8.754;2023-05-10T13:02:51;14.80;99.90
16511;DHT22;8368;48.772;8.754;2023-05-10T13:05:17;14.70;99.90
16511;DHT22;8368;48.772;8.754;2023-05-10T13:07:43;14.70;99.90
16511;DHT22;8368;48.772;8.754;2023-05-10T13:10:09;14.90;99.90
16511;DHT22;8368;48.772;8.754;2023-05-10T13:12:35;15.00;99.90
16511;DHT22;8368;48.772;8.754;2023-05-10T13:15:01;15.10;99.90
16511;DHT22;8368;48.772;8.754;2023-05-10T13:17:26;15.20;99.90
16511;DHT22;8368;48.772;8.754;2023-05-10T13:19:52;15.50;99.90
16511;DHT22;8368;48.772;8.754;2023-05-10T13:22:18;15.50;99.90
16511;DHT22;8368;48.772;8.754;2023-05-10T13:24:43;15.70;99.90
16511;DHT22;8368;48.772;8.754;2023-05-10T13:27:09;15.70;99.90
16511;DHT22;8368;48.772;8.754;2023-05-10T13:29:34;15.60;99.90
16511;DHT22;8368;48.772;8.754;2023-05-10T13:32:00;15.70;99.90
16511;DHT22;8368;48.772;8.754;2023-05-10T13:34:26;15.50;99.90
16511;DHT22;8368;48.772;8.754;2023-05-10T13:36:51;15.50;99.90
16511;DHT22;8368;48.772;8.754;2023-05-10T13:39:18;15.70;99.90
16511;DHT22;8368;48.772;8.754;2023-05-10T13:41:43;16.00;99.90
16511;DHT22;8368;48.772;8.754;2023-05-10T13:44:11;16.30;99.90
16511;DHT22;8368;48.772;8.754;2023-05-10T13:46:37;16.40;99.90
16511;DHT22;8368;48.772;8.754;2023-05-10T13:49:03;16.50;99.90
16511;DHT22;8368;48.772;8.754;2023-05-10T13:51:29;16.60;99.90
16511;DHT22;8368;48.772;8.754;2023-05-10T13:53:54;16.30;99.90
16511;DHT22;8368;48.772;8.754;2023-05-10T13:56:20;16.20;99.90
16511;DHT22;8368;48.772;8.754;2023-05-10T13:58:45;16.10;99.90
16511;DHT22;8368;48.772;8.754;2023-05-10T14:01:11;15.80;99.90
16511;DHT22;8368;48.772;8.754;2023-05-10T14:03:37;15.40;99.90
16511;DHT22;8368;48.772;8.754;2023-05-10T14:06:03;15.10;99.90
16511;DHT22;8368;48.772;8.754;2023-05-10T14:08:28;15.00;99.90
16511;DHT22;8368;48.772;8.754;2023-05-10T14:10:54;14.90;99.90
16511;DHT22;8368;48.772;8.754;2023-05-10T14:13:21;15.00;99.90
16511;DHT22;8368;48.772;8.754;2023-05-10T14:15:47;15.00;99.90
16511;DHT22;8368;48.772;8.754;2023-05-10T14:18:12;15.00;99.90
16511;DHT22;8368;48.772;8.754;2023-05-10T14:20:38;15.10;99.90
16511;DHT22;8368;48.772;8.754;2023-05-10T14:23:03;15.20;99.90
16511;DHT22;8368;48.772;8.754;2023-05-10T14:25:29;15.30;99.90
16511;DHT22;8368;48.772;8.754;2023-05-10T14:27:54;15.40;99.90
16511;DHT22;8368;48.772;8.754;2023-05-10T14:30:20;15.40;99.90
16511;DHT22;8368;48.772;8.754;2023-05-10T14:32:46;15.60;99.90
16511;DHT22;8368;48.772;8.754;2023-05-10T14:35:11;15.80;99.90
16511;DHT22;8368;48.772;8.754;2023-05-10T14:37:38;15.90;99.90
16511;DHT22;8368;48.772;8.754;2023-05-10T14:40:04;15.80;99.90
16511;DHT22;8368;48.772;8.754;2023-05-10T14:42:29;15.80;99.90
16511;DHT22;8368;48.772;8.754;2023-05-10T14:44:56;15.70;99.90
16511;DHT22;8368;48.772;8.754;2023-05-10T14:47:22;15.70;99.90
16511;DHT22;8368;48.772;8.754;2023-05-10T14:49:47;15.70;99.90
16511;DHT22;8368;48.772;8.754;2023-05-10T14:52:13;15.60;99.90
16511;DHT22;8368;48.772;8.754;2023-05-10T14:54:39;15.90;99.90
16511;DHT22;8368;48.772;8.754;2023-05-10T14:57:06;15.90;99.90
16511;DHT22;8368;48.772;8.754;2023-05-10T14:59:31;15.80;99.90
16511;DHT22;8368;48.772;8.754;2023-05-10T15:01:57;15.80;99.90
16511;DHT22;8368;48.772;8.754;2023-05-10T15:04:22;15.90;99.90
16511;DHT22;8368;48.772;8.754;2023-05-10T15:06:48;16.00;99.90
16511;DHT22;8368;48.772;8.754;2023-05-10T15:09:13;15.90;99.90
16511;DHT22;8368;48.772;8.754;2023-05-10T15:11:39;15.80;99.90
16511;DHT22;8368;48.772;8.754;2023-05-10T15:14:04;15.70;99.90
16511;DHT22;8368;48.772;8.754;2023-05-10T15:16:30;15.60;99.90
16511;DHT22;8368;48.772;8.754;2023-05-10T15:18:55;15.60;99.90
16511;DHT22;8368;48.772;8.754;2023-05-10T15:21:21;15.70;99.90
16511;DHT22;8368;48.772;8.754;2023-05-10T15:23:46;15.70;99.90
16511;DHT22;8368;48.772;8.754;2023-05-10T15:26:12;15.70;99.90
16511;DHT22;8368;48.772;8.754;2023-05-10T15:28:38;15.70;99.90
16511;DHT22;8368;48.772;8.754;2023-05-10T15:31:03;15.50;99.90
16511;DHT22;8368;48.772;8.754;2023-05-10T15:33:29;15.40;99.90
16511;DHT22;8368;48.772;8.754;2023-05-10T15:35:54;15.50;99.90
16511;DHT22;8368;48.772;8.754;2023-05-10T15:38:20;15.40;99.90
16511;DHT22;8368;48.772;8.754;2023-05-10T15:40:45;15.50;99.90
16511;DHT22;8368;48.772;8.754;2023-05-10T15:43:11;15.60;99.90
16511;DHT22;8368;48.772;8.754;2023-05-10T15:45:36;15.60;99.90
16511;DHT22;8368;48.772;8.754;2023-05-10T15:48:02;15.50;99.90
16511;DHT22;8368;48.772;8.754;2023-05-10T15:50:28;15.40;99.90
16511;DHT22;8368;48.772;8.754;2023-05-10T15:52:53;15.20;99.90
16511;DHT22;8368;48.772;8.754;2023-05-10T15:55:19;15.10;99.90
16511;DHT22;8368;48.772;8.754;2023-05-10T15:57:44;14.80;99.90
16511;DHT22;8368;48.772;8.754;2023-05-10T16:00:11;14.60;99.90
16511;DHT22;8368;48.772;8.754;2023-05-10T16:02:40;14.60;99.90
16511;DHT22;8368;48.772;8.754;2023-05-10T16:05:06;14.50;99.90
16511;DHT22;8368;48.772;8.754;2023-05-10T16:07:32;14.40;99.90
16511;DHT22;8368;48.772;8.754;2023-05-10T16:09:58;14.50;99.90